Time;durP1;ratioP1;P1;durP2;ratioP2;P2;SDS_P1;SDS_P2;PMS_P1;PMS_P2;Temp;Humidity;BMP_temperature;BMP_pressure;BME280_temperature;BME280_humidity;BME280_pressure;Samples;Min_cycle;Max_cycle;Signal;HPM_P1;HPM_P2
2023/01/11 00:01:52;;;;;;;24.65;12.88;;;5.70;99.90;;;;;;5074244;28;20032;-80
2023/01/11 00:04:19;;;;;;;31.50;13.02;;;5.70;99.90;;;;;;5075645;28;20031;-80
2023/01/11 00:06:45;;;;;;;25.55;13.02;;;5.70;99.90;;;;;;5076931;28;20039;-80
2023/01/11 00:09:11;;;;;;;27.23;13.55;;;5.70;99.90;;;;;;5077066;28;20509;-79
2023/01/11 00:11:37;;;;;;;32.10;14.15;;;5.70;99.90;;;;;;5076861;28;20052;-80
2023/01/11 00:14:03;;;;;;;22.98;12.50;;;5.70;99.90;;;;;;5075444;28;20048;-78
2023/01/11 00:16:28;;;;;;;27.20;14.15;;;5.60;99.90;;;;;;5075505;28;20023;-79
2023/01/11 00:18:55;;;;;;;30.27;14.68;;;5.70;99.90;;;;;;5074075;28;20111;-79
2023/01/11 00:21:21;;;;;;;31.30;14.50;;;5.70;99.90;;;;;;5074683;28;20127;-80
2023/01/11 00:23:48;;;;;;;31.25;14.32;;;5.70;99.90;;;;;;5077079;28;20035;-79
2023/01/11 00:26:14;;;;;;;30.23;14.00;;;5.70;99.90;;;;;;5076518;28;20024;-80
2023/01/11 00:28:40;;;;;;;36.22;18.50;;;5.70;99.90;;;;;;5076268;28;20375;-79
2023/01/11 00:31:06;;;;;;;25.00;13.60;;;5.70;99.90;;;;;;5076245;28;20409;-79
2023/01/11 00:33:32;;;;;;;27.45;13.82;;;5.70;99.90;;;;;;5076371;28;20021;-79
2023/01/11 00:35:58;;;;;;;27.58;13.25;;;5.70;99.90;;;;;;5076094;28;20021;-79
2023/01/11 00:49:22;;;;;;;25.90;12.27;;;5.70;99.90;;;;;;5075409;28;20055;-79
2023/01/11 00:51:48;;;;;;;28.70;14.60;;;5.60;99.90;;;;;;5074610;28;20025;-80
2023/01/11 00:54:14;;;;;;;40.72;17.95;;;5.70;99.90;;;;;;5074376;28;20414;-79
2023/01/11 00:56:40;;;;;;;27.48;14.38;;;5.70;99.90;;;;;;5074277;28;20021;-80
2023/01/11 00:59:05;;;;;;;22.30;12.63;;;5.70;99.90;;;;;;5075458;28;20406;-80
2023/01/11 01:01:31;;;;;;;25.55;13.10;;;5.70;99.90;;;;;;5075294;28;20021;-79
2023/01/11 01:03:59;;;;;;;27.77;12.57;;;5.60;99.90;;;;;;5073986;28;20063;-80
2023/01/11 01:06:25;;;;;;;36.03;14.80;;;5.60;99.90;;;;;;5073923;28;20387;-80
2023/01/11 01:08:50;;;;;;;24.73;12.63;;;5.70;99.90;;;;;;5075340;28;20070;-80
2023/01/11 01:11:16;;;;;;;21.92;12.23;;;5.60;99.90;;;;;;5075379;28;20028;-80
2023/01/11 01:16:27;;;;;;;32.63;14.23;;;5.70;99.90;;;;;;5074995;28;20078;-81
2023/01/11 01:18:55;;;;;;;27.15;13.50;;;5.70;99.90;;;;;;5074407;28;20029;-80
2023/01/11 01:21:22;;;;;;;31.20;13.38;;;5.70;99.90;;;;;;5074551;28;20079;-80
2023/01/11 01:23:49;;;;;;;28.90;12.48;;;5.70;99.90;;;;;;5075242;28;20021;-81
2023/01/11 01:26:15;;;;;;;29.27;13.73;;;5.70;99.90;;;;;;5073651;28;20025;-80
2023/01/11 01:28:41;;;;;;;29.55;14.00;;;5.60;99.90;;;;;;5073912;28;20170;-80
2023/01/11 01:31:07;;;;;;;24.75;13.18;;;5.70;99.90;;;;;;5074734;28;20443;-79
2023/01/11 01:33:33;;;;;;;27.25;13.02;;;5.70;99.90;;;;;;5074758;28;20024;-80
2023/01/11 01:36:00;;;;;;;28.45;14.63;;;5.70;99.90;;;;;;5073511;28;20348;-80
2023/01/11 01:38:27;;;;;;;23.60;13.05;;;5.60;99.90;;;;;;5074238;28;20021;-81
2023/01/11 01:40:52;;;;;;;29.42;13.85;;;5.60;99.90;;;;;;5074880;28;20028;-80
2023/01/11 01:43:18;;;;;;;32.35;14.45;;;5.60;99.90;;;;;;5073085;28;20348;-81
2023/01/11 01:45:44;;;;;;;26.45;13.80;;;5.60;99.90;;;;;;5073164;28;20031;-81
2023/01/11 01:48:17;;;;;;;21.77;10.40;;;5.60;99.90;;;;;;5074180;28;20036;-80
2023/01/11 01:50:56;;;;;;;20.75;12.10;;;5.60;99.90;;;;;;5074407;28;20021;-81
2023/01/11 01:53:43;;;;;;;27.67;14.30;;;5.60;99.90;;;;;;5069386;28;20115;-80
2023/01/11 01:56:30;;;;;;;28.55;14.02;;;5.60;99.90;;;;;;5074059;28;20367;-80
2023/01/11 01:59:01;;;;;;;30.27;13.70;;;5.60;99.90;;;;;;5074036;28;20025;-81
2023/01/11 02:01:47;;;;;;;22.92;11.02;;;5.50;99.90;;;;;;5073345;28;20016;-82
2023/01/11 02:04:36;;;;;;;21.73;11.35;;;5.50;99.90;;;;;;5073016;28;20024;-79
2023/01/11 02:07:09;;;;;;;23.50;11.20;;;5.50;99.90;;;;;;5060122;28;20089;-81
2023/01/11 02:09:43;;;;;;;21.65;10.88;;;5.50;99.90;;;;;;5072681;28;20033;-80
2023/01/11 02:12:10;;;;;;;21.52;10.73;;;5.50;99.90;;;;;;5074000;28;20043;-81
2023/01/11 02:14:37;;;;;;;18.52;9.43;;;5.50;99.90;;;;;;5074302;28;20028;-80
2023/01/11 02:17:03;;;;;;;20.83;11.45;;;5.50;99.90;;;;;;5072450;28;20108;-80
2023/01/11 02:19:54;;;;;;;28.50;12.02;;;5.50;99.90;;;;;;5072340;28;20103;-81
2023/01/11 02:22:57;;;;;;;20.77;10.43;;;5.50;99.90;;;;;;5074378;28;20042;-82
2023/01/11 02:25:47;;;;;;;19.08;9.52;;;5.40;99.90;;;;;;5072056;28;20090;-81
2023/01/11 02:28:45;;;;;;;23.67;10.88;;;5.40;99.90;;;;;;5072064;28;20482;-80
2023/01/11 02:31:23;;;;;;;21.65;11.10;;;5.40;99.90;;;;;;5072551;28;20108;-81
2023/01/11 02:34:19;;;;;;;22.20;10.30;;;5.40;99.90;;;;;;5073169;28;20044;-81
2023/01/11 02:37:06;;;;;;;22.02;11.05;;;5.40;99.90;;;;;;5072324;28;20039;-81
2023/01/11 02:40:09;;;;;;;20.75;11.23;;;5.40;99.90;;;;;;5072596;28;20065;-80
2023/01/11 02:45:46;;;;;;;23.60;10.68;;;5.40;99.90;;;;;;5073211;28;20131;-81
2023/01/11 02:48:30;;;;;;;23.83;11.38;;;5.30;99.90;;;;;;5067673;28;20029;-80
2023/01/11 02:51:08;;;;;;;22.40;10.75;;;5.30;99.90;;;;;;5067064;28;20370;-81
2023/01/11 02:53:53;;;;;;;18.20;10.13;;;5.30;99.90;;;;;;5073882;28;20024;-80
2023/01/11 02:56:27;;;;;;;16.85;9.45;;;5.30;99.90;;;;;;5072222;28;20102;-79
2023/01/11 02:58:56;;;;;;;16.00;9.35;;;5.20;99.90;;;;;;5073148;28;20375;-80
2023/01/11 03:01:24;;;;;;;22.48;9.77;;;5.20;99.90;;;;;;5073491;28;20024;-80
2023/01/11 03:03:51;;;;;;;19.17;9.43;;;5.20;99.90;;;;;;5073060;28;20465;-79
2023/01/11 03:06:23;;;;;;;19.60;9.80;;;5.20;99.90;;;;;;5073312;28;20020;-81
2023/01/11 03:09:18;;;;;;;14.80;8.95;;;5.20;99.90;;;;;;5073165;28;20021;-82
2023/01/11 03:15:01;;;;;;;19.15;9.15;;;5.20;99.90;;;;;;5069585;28;20036;-80
2023/01/11 03:17:41;;;;;;;17.80;9.32;;;5.20;99.90;;;;;;5073322;28;20021;-80
2023/01/11 03:20:34;;;;;;;16.52;8.57;;;5.20;99.90;;;;;;5072885;28;20127;-80
2023/01/11 03:23:13;;;;;;;15.13;8.43;;;5.20;99.90;;;;;;5071839;28;20340;-79
2023/01/11 03:25:39;;;;;;;17.38;9.18;;;5.10;99.90;;;;;;5072049;28;20077;-81
2023/01/11 03:28:15;;;;;;;16.70;8.38;;;5.10;99.90;;;;;;5071715;28;20029;-79
2023/01/11 03:30:59;;;;;;;17.10;9.23;;;5.20;99.90;;;;;;5071758;28;20455;-81
2023/01/11 03:33:37;;;;;;;18.20;9.45;;;5.10;99.90;;;;;;5071855;28;20031;-80
2023/01/11 03:36:26;;;;;;;15.63;9.02;;;5.10;99.90;;;;;;5074244;28;20036;-82
2023/01/11 03:39:04;;;;;;;19.00;9.20;;;5.10;99.90;;;;;;5075669;28;20107;-79
2023/01/11 03:41:34;;;;;;;17.60;9.05;;;5.10;99.90;;;;;;5076776;28;20086;-80
2023/01/11 03:44:03;;;;;;;18.40;9.30;;;5.10;99.90;;;;;;5076648;28;20017;-80
2023/01/11 03:46:38;;;;;;;16.77;8.75;;;5.10;99.90;;;;;;5076972;28;20062;-81
2023/01/11 03:49:17;;;;;;;18.95;9.70;;;5.10;99.90;;;;;;5076974;28;20035;-79
2023/01/11 03:51:45;;;;;;;29.27;11.68;;;5.00;99.90;;;;;;5075569;28;20044;-79
2023/01/11 03:54:20;;;;;;;21.88;9.73;;;5.00;99.90;;;;;;5075547;28;20059;-80
2023/01/11 03:57:00;;;;;;;19.80;9.23;;;5.00;99.90;;;;;;5076599;28;20518;-82
2023/01/11 03:59:26;;;;;;;21.67;9.45;;;5.00;99.90;;;;;;5076863;28;20020;-80
2023/01/11 04:01:53;;;;;;;16.52;9.98;;;5.00;99.90;;;;;;5076614;28;20107;-80
2023/01/11 04:04:19;;;;;;;18.70;10.52;;;5.00;99.90;;;;;;5076800;28;20024;-80
2023/01/11 04:06:45;;;;;;;21.65;9.95;;;5.00;99.90;;;;;;5077321;28;20036;-79
2023/01/11 04:09:10;;;;;;;26.30;11.20;;;5.00;99.90;;;;;;5076663;28;20060;-80
2023/01/11 04:11:36;;;;;;;21.15;10.80;;;5.00;99.90;;;;;;5076608;28;20013;-80
2023/01/11 04:14:02;;;;;;;16.77;9.13;;;5.00;99.90;;;;;;5075730;28;20036;-79
2023/01/11 04:16:28;;;;;;;16.90;8.75;;;4.90;99.90;;;;;;5075548;28;20435;-81
2023/01/11 04:18:53;;;;;;;18.90;9.23;;;4.90;99.90;;;;;;5075517;28;20016;-82
2023/01/11 04:21:19;;;;;;;18.45;9.07;;;4.90;99.90;;;;;;5075133;28;20479;-82
2023/01/11 04:23:45;;;;;;;17.52;9.60;;;4.90;99.90;;;;;;5075464;28;20024;-81
2023/01/11 04:26:10;;;;;;;18.15;9.43;;;4.90;99.90;;;;;;5076491;28;20109;-80
2023/01/11 04:28:36;;;;;;;17.38;9.88;;;4.90;99.90;;;;;;5076844;28;20067;-80
2023/01/11 04:31:02;;;;;;;14.43;8.13;;;4.90;99.90;;;;;;5075341;28;20044;-79
2023/01/11 04:33:28;;;;;;;13.43;7.97;;;4.80;99.90;;;;;;5076167;28;20024;-82
2023/01/11 04:35:54;;;;;;;21.00;8.40;;;4.80;99.90;;;;;;5076459;28;20387;-80
2023/01/11 04:38:23;;;;;;;21.45;10.85;;;4.80;99.90;;;;;;5074712;28;20028;-81
2023/01/11 04:42:17;;;;;;;17.30;9.48;;;4.80;99.90;;;;;;5074826;28;20359;-80
2023/01/11 04:43:35;;;;;;;18.60;9.77;;;4.80;99.90;;;;;;5075505;28;20459;-81
2023/01/11 04:46:01;;;;;;;21.00;11.85;;;4.70;99.90;;;;;;5075774;28;20074;-80
2023/01/11 04:48:26;;;;;;;14.02;7.57;;;4.70;99.90;;;;;;5073838;28;20107;-82
2023/01/11 04:50:52;;;;;;;22.38;9.48;;;4.70;99.90;;;;;;5075908;28;20028;-80
2023/01/11 04:53:18;;;;;;;20.33;10.02;;;4.70;99.90;;;;;;5075680;28;20099;-80
2023/01/11 04:55:43;;;;;;;16.02;8.57;;;4.60;99.90;;;;;;5074132;28;20020;-80
2023/01/11 04:58:09;;;;;;;21.98;9.50;;;4.60;99.90;;;;;;5075718;28;20016;-80
2023/01/11 05:00:34;;;;;;;21.48;16.45;;;4.60;99.90;;;;;;5074250;28;20466;-80
2023/01/11 05:03:00;;;;;;;24.67;12.43;;;4.60;99.90;;;;;;5073998;28;20028;-79
2023/01/11 05:05:26;;;;;;;16.92;9.40;;;4.60;99.90;;;;;;5075157;28;20030;-81
2023/01/11 05:07:51;;;;;;;22.73;10.80;;;4.60;99.90;;;;;;5075383;28;20447;-81
2023/01/11 05:10:17;;;;;;;20.92;10.48;;;4.60;99.90;;;;;;5074323;28;20047;-80
2023/01/11 05:12:43;;;;;;;17.92;9.32;;;4.60;99.90;;;;;;5075481;28;20027;-80
2023/01/11 05:15:09;;;;;;;18.25;8.93;;;4.60;99.90;;;;;;5075082;28;20028;-81
2023/01/11 05:17:34;;;;;;;14.98;7.88;;;4.60;99.90;;;;;;5074162;28;20028;-79
2023/01/11 05:20:00;;;;;;;17.00;7.60;;;4.50;99.90;;;;;;5074157;28;20052;-80
2023/01/11 05:22:26;;;;;;;15.02;8.02;;;4.50;99.90;;;;;;5075556;28;20017;-80
2023/01/11 05:24:52;;;;;;;16.70;9.02;;;4.50;99.90;;;;;;5075685;28;20107;-79
2023/01/11 05:27:17;;;;;;;15.38;7.57;;;4.50;99.90;;;;;;5074296;28;20025;-79
2023/01/11 05:29:43;;;;;;;13.77;7.57;;;4.50;99.90;;;;;;5075404;28;20056;-80
2023/01/11 05:32:11;;;;;;;13.60;7.38;;;4.50;99.90;;;;;;5075569;28;20047;-81
2023/01/11 05:34:36;;;;;;;17.30;7.95;;;4.40;99.90;;;;;;5075148;28;20065;-80
2023/01/11 05:37:02;;;;;;;17.65;8.25;;;4.40;99.90;;;;;;5074991;28;20025;-80
2023/01/11 05:39:27;;;;;;;23.33;10.50;;;4.40;99.90;;;;;;5074042;28;20106;-79
2023/01/11 05:41:53;;;;;;;21.88;10.95;;;4.40;99.90;;;;;;5074907;28;20443;-79
2023/01/11 05:47:03;;;;;;;16.55;8.50;;;4.40;99.90;;;;;;5074734;28;20116;-80
2023/01/11 05:49:29;;;;;;;22.80;8.98;;;4.40;99.90;;;;;;5074382;28;20092;-80
2023/01/11 05:51:54;;;;;;;22.50;9.77;;;4.40;99.90;;;;;;5073429;28;20036;-81
2023/01/11 05:54:20;;;;;;;26.08;11.25;;;4.40;99.90;;;;;;5073121;28;20024;-81
2023/01/11 05:56:46;;;;;;;23.13;11.90;;;4.40;99.90;;;;;;5074537;28;20021;-81
2023/01/11 05:59:12;;;;;;;26.05;10.70;;;4.40;99.90;;;;;;5072627;28;20406;-79
2023/01/11 06:01:37;;;;;;;27.42;11.98;;;4.40;99.90;;;;;;5072372;28;20405;-80
2023/01/11 06:04:03;;;;;;;22.42;9.10;;;4.40;99.90;;;;;;5073894;28;20078;-79
2023/01/11 06:06:31;;;;;;;22.67;11.00;;;4.40;99.90;;;;;;5072723;28;20032;-80
2023/01/11 06:08:56;;;;;;;26.27;12.75;;;4.50;99.90;;;;;;5073859;28;20037;-80
2023/01/11 06:11:22;;;;;;;36.80;13.32;;;4.40;99.90;;;;;;5074091;28;20503;-80
2023/01/11 06:13:48;;;;;;;51.97;16.67;;;4.40;99.90;;;;;;5074161;28;20075;-80
2023/01/11 06:16:16;;;;;;;49.38;17.85;;;4.50;99.90;;;;;;5072743;28;20036;-79
2023/01/11 06:18:49;;;;;;;38.53;15.35;;;4.50;99.90;;;;;;5073878;28;20024;-80
2023/01/11 06:21:24;;;;;;;42.03;16.25;;;4.50;99.90;;;;;;5110675;27;20388;-82
2023/01/11 06:23:50;;;;;;;36.85;14.00;;;4.40;99.90;;;;;;5092834;28;20405;-80
2023/01/11 06:26:18;;;;;;;25.60;11.77;;;4.40;99.90;;;;;;5092489;28;20023;-81
2023/01/11 06:28:45;;;;;;;28.63;11.65;;;4.40;99.90;;;;;;5110935;28;20032;-81
2023/01/11 06:31:10;;;;;;;36.22;15.63;;;4.40;99.90;;;;;;5092412;28;20040;-81
2023/01/11 06:33:36;;;;;;;25.75;12.07;;;4.40;99.90;;;;;;5110556;28;20020;-82
2023/01/11 06:36:07;;;;;;;26.63;12.60;;;4.40;99.90;;;;;;5110753;28;20090;-82
2023/01/11 06:38:34;;;;;;;29.67;13.05;;;4.40;99.90;;;;;;5110747;28;20020;-81
2023/01/11 06:41:01;;;;;;;24.63;11.82;;;4.40;99.90;;;;;;5092090;28;20031;-81
2023/01/11 06:43:28;;;;;;;26.27;12.30;;;4.40;99.90;;;;;;5092218;28;20039;-81
2023/01/11 06:45:54;;;;;;;19.15;10.38;;;4.40;99.90;;;;;;5092552;28;20023;-82
2023/01/11 06:48:21;;;;;;;27.75;13.07;;;4.30;99.90;;;;;;5110546;28;20451;-80
2023/01/11 06:50:48;;;;;;;30.30;13.25;;;4.40;99.90;;;;;;5091673;28;20020;-81
2023/01/11 06:53:14;;;;;;;24.40;11.23;;;4.40;99.90;;;;;;5110647;28;20031;-82
2023/01/11 06:55:39;;;;;;;21.52;11.35;;;4.40;99.90;;;;;;5092062;28;20022;-82
2023/01/11 06:58:05;;;;;;;22.20;11.35;;;4.40;99.90;;;;;;5110464;28;20457;-81
2023/01/11 07:00:32;;;;;;;20.88;10.35;;;4.40;99.90;;;;;;5110116;28;20023;-85
2023/01/11 07:03:04;;;;;;;32.33;14.82;;;4.40;99.90;;;;;;5092156;28;20118;-85
2023/01/11 07:05:34;;;;;;;36.80;15.80;;;4.40;99.90;;;;;;5092482;28;20016;-81
2023/01/11 07:08:00;;;;;;;27.83;14.35;;;4.40;99.90;;;;;;5091372;28;20016;-82
2023/01/11 07:10:25;;;;;;;27.08;12.00;;;4.40;99.90;;;;;;5110359;28;20080;-82
2023/01/11 07:12:52;;;;;;;27.67;12.70;;;4.40;99.90;;;;;;5110407;28;20091;-81
2023/01/11 07:15:18;;;;;;;19.90;11.52;;;4.40;99.90;;;;;;5092482;28;20106;-82
2023/01/11 07:17:46;;;;;;;24.63;12.25;;;4.30;99.90;;;;;;5091663;28;20481;-82
2023/01/11 07:20:12;;;;;;;26.27;13.00;;;4.30;99.90;;;;;;5109598;28;20048;-83
2023/01/11 07:22:39;;;;;;;31.90;14.30;;;4.30;99.90;;;;;;5091993;28;20462;-84
2023/01/11 07:25:05;;;;;;;28.05;13.65;;;4.30;99.90;;;;;;5109925;28;20026;-84
2023/01/11 07:27:31;;;;;;;30.20;15.68;;;4.40;99.90;;;;;;5091943;28;20019;-84
2023/01/11 07:30:00;;;;;;;34.40;15.30;;;4.30;99.90;;;;;;5091801;28;20343;-84
2023/01/11 07:32:27;;;;;;;31.38;14.88;;;4.40;99.90;;;;;;5079659;28;20031;-84
2023/01/11 07:34:54;;;;;;;30.20;14.60;;;4.40;99.90;;;;;;5095988;28;20035;-82
2023/01/11 07:37:20;;;;;;;39.17;18.40;;;4.40;99.90;;;;;;5096047;28;20020;-82
2023/01/11 07:39:46;;;;;;;28.10;14.80;;;4.40;99.90;;;;;;5096181;28;20024;-82
2023/01/11 07:44:56;;;;;;;41.88;23.00;;;4.30;99.90;;;;;;5090835;28;20073;-82
2023/01/11 07:47:22;;;;;;;58.15;32.28;;;4.30;99.90;;;;;;5078060;28;20024;-81
2023/01/11 07:49:48;;;;;;;66.05;31.65;;;4.30;99.90;;;;;;5096221;28;20080;-82
2023/01/11 07:52:13;;;;;;;80.22;29.58;;;4.30;99.90;;;;;;5077897;28;20028;-82
2023/01/11 07:54:39;;;;;;;94.78;39.05;;;4.30;99.90;;;;;;5078580;28;20020;-81
2023/01/11 07:57:05;;;;;;;109.78;42.78;;;4.30;99.90;;;;;;5096454;28;20504;-82
2023/01/11 07:59:30;;;;;;;84.97;38.47;;;4.30;99.90;;;;;;5077982;28;20035;-81
2023/01/11 08:01:56;;;;;;;70.20;35.30;;;4.20;99.90;;;;;;5077610;28;20123;-82
2023/01/11 08:04:22;;;;;;;63.03;30.27;;;4.20;99.90;;;;;;5078186;28;20059;-82
2023/01/11 08:06:48;;;;;;;68.35;34.15;;;4.20;99.90;;;;;;5096392;28;20340;-82
2023/01/11 08:09:13;;;;;;;72.82;35.38;;;4.20;99.90;;;;;;5095653;28;20081;-81
2023/01/11 08:14:38;;;;;;;52.03;27.40;;;4.20;99.90;;;;;;5096053;28;20018;-81
2023/01/11 08:17:04;;;;;;;81.22;37.92;;;4.10;99.90;;;;;;5095903;28;20020;-81
2023/01/11 08:19:30;;;;;;;58.08;29.40;;;4.10;99.90;;;;;;5095740;28;20093;-81
2023/01/11 08:21:55;;;;;;;54.58;27.17;;;4.10;99.90;;;;;;5077784;28;20019;-81
2023/01/11 08:24:21;;;;;;;42.38;22.02;;;4.10;99.90;;;;;;5095683;28;20454;-83
2023/01/11 08:26:47;;;;;;;42.75;21.17;;;4.10;99.90;;;;;;5077671;28;20115;-83
2023/01/11 08:29:13;;;;;;;45.85;22.20;;;4.20;99.90;;;;;;5077505;28;20127;-82
2023/01/11 08:31:39;;;;;;;53.22;25.75;;;4.10;99.90;;;;;;5095834;28;20016;-82
2023/01/11 08:34:04;;;;;;;62.60;27.55;;;4.20;99.90;;;;;;5077087;28;20081;-83
2023/01/11 08:36:31;;;;;;;57.70;23.73;;;4.20;99.90;;;;;;5076089;28;20115;-82
2023/01/11 08:38:57;;;;;;;59.67;23.55;;;4.20;99.90;;;;;;5076736;28;20020;-83
2023/01/11 08:41:24;;;;;;;71.82;25.42;;;4.20;99.90;;;;;;5077301;28;20114;-83
2023/01/11 08:43:50;;;;;;;71.30;23.98;;;4.20;99.90;;;;;;5075668;28;20027;-80
2023/01/11 08:46:19;;;;;;;47.63;20.83;;;4.10;99.90;;;;;;5077088;28;20073;-81
2023/01/11 08:48:47;;;;;;;66.05;26.60;;;4.20;99.90;;;;;;5094535;28;20072;-83
2023/01/11 08:51:14;;;;;;;88.57;44.17;;;4.10;99.90;;;;;;5076679;28;20096;-83
2023/01/11 08:53:40;;;;;;;85.93;38.75;;;4.10;99.90;;;;;;5094962;28;20362;-82
2023/01/11 08:56:06;;;;;;;54.75;27.05;;;4.20;99.90;;;;;;5076758;28;20023;-82
2023/01/11 08:58:31;;;;;;;54.40;25.95;;;4.20;99.90;;;;;;5095100;28;20081;-83
2023/01/11 09:00:58;;;;;;;60.38;27.95;;;4.20;99.90;;;;;;5076996;28;20463;-83
2023/01/11 09:03:25;;;;;;;69.03;24.95;;;4.20;99.90;;;;;;5076294;28;20111;-83
2023/01/11 09:05:50;;;;;;;83.28;37.33;;;4.20;99.90;;;;;;5075153;28;20102;-82
2023/01/11 09:08:16;;;;;;;70.18;31.02;;;4.20;99.90;;;;;;5075554;28;20028;-83
2023/01/11 09:10:41;;;;;;;61.58;24.15;;;4.20;99.90;;;;;;5093022;28;20024;-83
2023/01/11 09:13:07;;;;;;;69.15;27.15;;;4.20;99.90;;;;;;5075047;28;20031;-82
2023/01/11 09:15:33;;;;;;;68.97;28.48;;;4.10;99.90;;;;;;5075216;28;20520;-83
2023/01/11 09:17:59;;;;;;;93.25;36.25;;;4.10;99.90;;;;;;5093243;28;20020;-82
2023/01/11 09:20:24;;;;;;;64.38;31.70;;;4.10;99.90;;;;;;5074380;28;20098;-84
2023/01/11 09:22:51;;;;;;;63.95;26.10;;;4.10;99.90;;;;;;5074882;28;20554;-82
2023/01/11 09:25:18;;;;;;;44.60;20.10;;;4.10;99.90;;;;;;5075717;28;20020;-83
2023/01/11 09:27:49;;;;;;;47.58;22.60;;;4.00;99.90;;;;;;5076253;28;20027;-84
2023/01/11 09:30:17;;;;;;;50.90;24.63;;;4.00;99.90;;;;;;5076322;28;20120;-83
2023/01/11 09:32:45;;;;;;;43.88;21.80;;;4.00;99.90;;;;;;5076408;28;20081;-82
2023/01/11 09:35:11;;;;;;;40.85;19.70;;;4.00;99.90;;;;;;5076120;28;20024;-81
2023/01/11 09:37:40;;;;;;;36.40;17.73;;;4.00;99.90;;;;;;5094129;28;20020;-83
2023/01/11 09:40:10;;;;;;;38.35;19.40;;;3.90;99.90;;;;;;5075990;28;20073;-81
2023/01/11 09:42:41;;;;;;;37.08;18.48;;;3.90;99.90;;;;;;5076335;28;20072;-82
2023/01/11 09:45:24;;;;;;;43.40;23.50;;;3.90;99.90;;;;;;5094294;28;20016;-83
2023/01/11 09:48:02;;;;;;;52.80;27.80;;;3.90;99.90;;;;;;5094261;28;20024;-82
2023/01/11 09:50:34;;;;;;;49.75;22.92;;;4.00;99.90;;;;;;5076220;28;20024;-82
2023/01/11 09:53:07;;;;;;;42.33;18.95;;;4.00;99.90;;;;;;5094140;28;20012;-82
2023/01/11 09:55:41;;;;;;;42.92;21.80;;;3.90;99.90;;;;;;5093930;28;20024;-82
2023/01/11 09:58:21;;;;;;;36.10;19.25;;;3.90;99.90;;;;;;5075932;28;20023;-82
2023/01/11 10:00:50;;;;;;;46.60;23.10;;;3.90;99.90;;;;;;5076055;28;20035;-82
2023/01/11 10:03:34;;;;;;;53.10;22.88;;;4.00;99.90;;;;;;5076005;28;20500;-82
2023/01/11 10:06:38;;;;;;;35.47;17.65;;;4.00;99.90;;;;;;5075843;28;20150;-81
2023/01/11 10:09:21;;;;;;;37.75;17.17;;;4.00;99.90;;;;;;5062208;28;20032;-83
2023/01/11 10:12:08;;;;;;;61.70;31.42;;;4.00;99.90;;;;;;5076139;28;20121;-83
2023/01/11 10:14:40;;;;;;;58.88;33.35;;;4.10;99.90;;;;;;5094072;28;20024;-81
2023/01/11 10:17:27;;;;;;;53.10;28.05;;;4.10;99.90;;;;;;5075663;28;20023;-82
2023/01/11 10:20:10;;;;;;;38.85;20.83;;;4.10;99.90;;;;;;5072024;28;20543;-81
2023/01/11 10:22:42;;;;;;;31.42;15.23;;;4.10;99.90;;;;;;5073307;28;20024;-82
2023/01/11 10:25:23;;;;;;;;;;;4.10;99.90;;;;;;5073032;28;20025;-82
2023/01/11 10:28:00;;;;;;;34.60;15.80;;;4.10;99.90;;;;;;5074005;28;19907;-82
2023/01/11 10:30:54;;;;;;;46.65;20.38;;;4.10;99.90;;;;;;5073783;28;20029;-82
2023/01/11 10:37:11;;;;;;;53.65;22.85;;;4.10;99.90;;;;;;5073189;28;20362;-81
2023/01/11 10:39:54;;;;;;;50.35;24.27;;;4.20;99.90;;;;;;5072905;28;20485;-82
2023/01/11 10:42:28;;;;;;;43.75;22.00;;;4.20;99.90;;;;;;5072596;28;20336;-81
2023/01/11 10:45:19;;;;;;;39.72;17.13;;;4.20;99.90;;;;;;5073403;28;20020;-81
2023/01/11 10:48:01;;;;;;;38.83;19.15;;;4.10;99.90;;;;;;5073200;28;20029;-81
2023/01/11 10:50:38;;;;;;;45.13;21.67;;;4.10;99.90;;;;;;5073066;28;20024;-82
2023/01/11 10:53:16;;;;;;;34.33;17.38;;;4.20;99.90;;;;;;5072225;28;20035;-81
2023/01/11 10:55:46;;;;;;;38.00;18.00;;;4.20;99.90;;;;;;5073431;28;20107;-81
2023/01/11 10:58:30;;;;;;;38.75;17.73;;;4.20;99.90;;;;;;5073197;28;20154;-82
2023/01/11 11:01:07;;;;;;;38.58;18.83;;;4.20;99.90;;;;;;5073253;28;20539;-83
2023/01/11 11:03:39;;;;;;;46.15;21.85;;;4.20;99.90;;;;;;5072191;28;20024;-82
2023/01/11 11:06:22;;;;;;;60.45;25.10;;;4.30;99.90;;;;;;5072296;28;20028;-81
2023/01/11 11:08:51;;;;;;;58.70;29.55;;;4.30;99.90;;;;;;5075009;28;20021;-82
2023/01/11 11:11:20;;;;;;;44.50;18.60;;;4.30;99.90;;;;;;5076536;28;20024;-81
2023/01/11 11:14:03;;;;;;;40.22;18.60;;;4.30;99.90;;;;;;5076689;28;20482;-83
2023/01/11 11:16:49;;;;;;;55.85;21.40;;;4.40;99.90;;;;;;5075630;28;20059;-82
2023/01/11 11:19:20;;;;;;;69.68;29.83;;;4.40;99.90;;;;;;5067939;28;20038;-82
2023/01/11 11:21:47;;;;;;;113.22;44.92;;;4.50;99.90;;;;;;5097600;28;20519;-83
2023/01/11 11:24:26;;;;;;;124.50;51.05;;;4.50;99.90;;;;;;5096946;28;20016;-83
2023/01/11 11:27:21;;;;;;;266.75;82.00;;;4.60;99.90;;;;;;5096548;28;20043;-83
2023/01/11 11:29:52;;;;;;;134.80;50.10;;;4.60;99.90;;;;;;5058292;28;20127;-82
2023/01/11 11:32:29;;;;;;;120.50;47.17;;;4.50;99.90;;;;;;5078532;28;20028;-81
2023/01/11 11:34:54;;;;;;;120.35;47.08;;;4.60;99.90;;;;;;5096913;28;20034;-81
2023/01/11 11:37:26;;;;;;;131.35;56.03;;;4.60;99.90;;;;;;5096698;28;20016;-82
2023/01/11 11:39:53;;;;;;;104.13;44.65;;;4.60;99.90;;;;;;5078511;28;20028;-81
2023/01/11 11:42:20;;;;;;;86.63;38.05;;;4.60;99.90;;;;;;5097011;28;20043;-82
2023/01/11 11:45:08;;;;;;;70.00;31.85;;;4.60;99.90;;;;;;5078404;28;20081;-81
2023/01/11 11:47:35;;;;;;;69.80;27.45;;;4.60;99.90;;;;;;5065632;28;20032;-82
2023/01/11 11:50:19;;;;;;;65.45;28.38;;;4.60;99.90;;;;;;5078342;28;20080;-82
2023/01/11 11:53:02;;;;;;;63.47;24.05;;;4.70;99.90;;;;;;5096550;28;20512;-81
2023/01/11 11:55:31;;;;;;;47.17;22.65;;;4.70;99.90;;;;;;5078736;28;20031;-83
2023/01/11 11:58:03;;;;;;;46.38;21.20;;;4.80;99.90;;;;;;5078239;28;20027;-82
2023/01/11 12:00:30;;;;;;;;;;;4.80;99.90;;;;;;5078163;28;20078;-83
2023/01/11 12:03:01;;;;;;;40.90;17.90;;;4.90;99.90;;;;;;5096334;28;19900;-82
2023/01/11 12:05:27;;;;;;;54.78;22.23;;;4.90;99.90;;;;;;5078249;28;20063;-82
2023/01/11 12:07:53;;;;;;;45.45;21.17;;;4.90;99.90;;;;;;5096081;28;20056;-82
2023/01/11 12:10:22;;;;;;;54.75;27.10;;;4.90;99.90;;;;;;5078084;28;20028;-82
2023/01/11 12:12:57;;;;;;;47.33;22.80;;;5.00;99.90;;;;;;5077855;28;20026;-82
2023/01/11 12:15:26;;;;;;;51.38;22.27;;;5.00;99.90;;;;;;5095876;28;20461;-81
2023/01/11 12:17:52;;;;;;;55.80;24.75;;;5.00;99.90;;;;;;5095786;28;20020;-83
2023/01/11 12:20:20;;;;;;;45.90;19.83;;;5.10;99.90;;;;;;5077340;28;20474;-81
2023/01/11 12:22:47;;;;;;;47.25;21.80;;;5.10;99.90;;;;;;5076441;28;20016;-82
2023/01/11 12:25:13;;;;;;;60.70;27.13;;;5.10;99.90;;;;;;5077151;28;20020;-81
2023/01/11 12:27:48;;;;;;;47.97;23.08;;;5.10;99.90;;;;;;5095760;28;20024;-81
2023/01/11 12:30:26;;;;;;;82.75;30.95;;;5.10;99.90;;;;;;5095490;28;20028;-81
2023/01/11 12:33:07;;;;;;;70.97;32.72;;;5.10;99.90;;;;;;5095162;28;20020;-81
2023/01/11 12:35:52;;;;;;;50.50;25.90;;;5.10;99.90;;;;;;5095126;28;20020;-82
2023/01/11 12:38:57;;;;;;;37.65;17.80;;;5.10;99.90;;;;;;5077309;28;20509;-82
2023/01/11 12:41:52;;;;;;;63.53;27.35;;;5.00;99.90;;;;;;5077258;28;20522;-84
2023/01/11 12:44:39;;;;;;;105.85;43.00;;;5.10;99.90;;;;;;5077251;28;20020;-82
2023/01/11 12:47:32;;;;;;;131.90;59.97;;;5.10;99.90;;;;;;5095487;28;20051;-82
2023/01/11 12:50:06;;;;;;;86.35;47.33;;;5.20;99.90;;;;;;5095062;28;20073;-82
2023/01/11 12:52:35;;;;;;;118.50;55.05;;;5.20;99.90;;;;;;5095245;28;20020;-81
2023/01/11 12:55:00;;;;;;;231.90;108.22;;;5.20;99.90;;;;;;5094726;28;20020;-82
2023/01/11 12:57:33;;;;;;;107.85;53.00;;;5.20;99.90;;;;;;5095192;28;20020;-82
2023/01/11 13:00:31;;;;;;;159.07;73.57;;;5.20;99.90;;;;;;5094819;28;20116;-81
2023/01/11 13:03:17;;;;;;;181.30;82.45;;;5.20;99.90;;;;;;5012098;28;20584;-82
2023/01/11 13:06:15;;;;;;;53.33;27.48;;;5.20;99.90;;;;;;5012847;28;20026;-83
2023/01/11 13:09:19;;;;;;;45.13;21.95;;;5.10;99.90;;;;;;4996186;28;20030;-82
2023/01/11 13:11:54;;;;;;;82.60;38.58;;;5.20;99.90;;;;;;4976124;28;20077;-82
2023/01/11 13:14:53;;;;;;;88.68;43.85;;;5.20;99.90;;;;;;5012344;28;20034;-83
2023/01/11 13:17:38;;;;;;;69.28;31.15;;;5.20;99.90;;;;;;5012312;28;20104;-82
2023/01/11 13:20:35;;;;;;;74.78;32.33;;;5.10;99.90;;;;;;4995727;28;20048;-81
2023/01/11 13:23:13;;;;;;;49.78;25.52;;;5.10;99.90;;;;;;5012632;28;20081;-82
2023/01/11 13:25:44;;;;;;;78.57;34.90;;;5.10;99.90;;;;;;4995693;28;20099;-82
2023/01/11 13:28:39;;;;;;;74.03;33.83;;;5.10;99.90;;;;;;5012279;28;20094;-83
2023/01/11 13:31:09;;;;;;;77.57;34.83;;;5.20;99.90;;;;;;4995390;28;20061;-82
2023/01/11 13:33:36;;;;;;;85.38;41.45;;;5.10;99.90;;;;;;4995759;28;20491;-82